Terminal Aerodrome Forecast
Issued by NWS

Home | Current Version | Previous Version | Text Only | Print | Product List | Glossary On
Versions: 1 2 3 4 5 6 7 8 9 10 11 12 13 14 15
000
FTAK31 PAFA 232114 AAA
TAFAGA
TAF AMD
PAGA 232114Z 2321/2418 19013G16KT P6SM VCSH FEW060 OVC110
     FM232300 21012G18KT P6SM VCSH SCT035 BKN050 OVC150
     FM240000 24020G28KT 6SM -RA BR SCT025 BKN035 OVC050
     FM241000 24018KT 6SM -SHRA SCT015 BKN025 OVC035=

USA.gov is the U.S. government's official web portal to all federal, state and local government web resources and services.